sensor_id;sensor_type;location;lat;lon;timestamp;P1;durP1;ratioP1;P2;durP2;ratioP2
8353;SDS011;4656;48.090;11.498;2023-02-18T00:01:11;3.13;;;2.30;;
8353;SDS011;4656;48.090;11.498;2023-02-18T00:03:13;3.20;;;2.33;;
8353;SDS011;4656;48.090;11.498;2023-02-18T00:05:15;2.97;;;2.10;;
8353;SDS011;4656;48.090;11.498;2023-02-18T00:07:18;2.92;;;2.13;;
8353;SDS011;4656;48.090;11.498;2023-02-18T00:09:20;2.83;;;2.10;;
8353;SDS011;4656;48.090;11.498;2023-02-18T00:11:22;2.63;;;2.05;;
8353;SDS011;4656;48.090;11.498;2023-02-18T00:13:25;3.20;;;2.20;;
8353;SDS011;4656;48.090;11.498;2023-02-18T00:15:27;2.88;;;2.00;;
8353;SDS011;4656;48.090;11.498;2023-02-18T00:17:30;3.47;;;1.92;;
8353;SDS011;4656;48.090;11.498;2023-02-18T00:19:32;2.40;;;2.05;;
8353;SDS011;4656;48.090;11.498;2023-02-18T00:21:34;2.33;;;2.13;;
8353;SDS011;4656;48.090;11.498;2023-02-18T00:23:37;2.23;;;1.97;;
8353;SDS011;4656;48.090;11.498;2023-02-18T00:25:39;2.20;;;2.00;;
8353;SDS011;4656;48.090;11.498;2023-02-18T00:27:41;2.33;;;1.90;;
8353;SDS011;4656;48.090;11.498;2023-02-18T00:29:44;2.42;;;1.92;;
8353;SDS011;4656;48.090;11.498;2023-02-18T00:31:47;2.63;;;1.75;;
8353;SDS011;4656;48.090;11.498;2023-02-18T00:33:49;2.35;;;1.85;;
8353;SDS011;4656;48.090;11.498;2023-02-18T00:35:51;2.70;;;1.80;;
8353;SDS011;4656;48.090;11.498;2023-02-18T00:37:53;3.22;;;1.85;;
8353;SDS011;4656;48.090;11.498;2023-02-18T00:39:56;2.00;;;1.80;;
8353;SDS011;4656;48.090;11.498;2023-02-18T00:41:58;2.70;;;1.83;;
8353;SDS011;4656;48.090;11.498;2023-02-18T00:44:00;2.85;;;2.30;;
8353;SDS011;4656;48.090;11.498;2023-02-18T00:46:04;2.28;;;1.63;;
8353;SDS011;4656;48.090;11.498;2023-02-18T00:48:06;2.08;;;1.88;;
8353;SDS011;4656;48.090;11.498;2023-02-18T00:50:09;2.80;;;1.88;;
8353;SDS011;4656;48.090;11.498;2023-02-18T00:52:11;3.95;;;2.25;;
8353;SDS011;4656;48.090;11.498;2023-02-18T00:54:13;2.90;;;1.80;;
8353;SDS011;4656;48.090;11.498;2023-02-18T00:56:16;3.08;;;1.92;;
8353;SDS011;4656;48.090;11.498;2023-02-18T00:58:18;3.10;;;1.80;;
8353;SDS011;4656;48.090;11.498;2023-02-18T01:00:20;1.98;;;1.70;;
8353;SDS011;4656;48.090;11.498;2023-02-18T01:02:25;3.00;;;1.70;;
8353;SDS011;4656;48.090;11.498;2023-02-18T01:04:28;3.25;;;2.05;;
8353;SDS011;4656;48.090;11.498;2023-02-18T01:06:30;2.97;;;1.97;;
8353;SDS011;4656;48.090;11.498;2023-02-18T01:08:32;2.38;;;2.10;;
8353;SDS011;4656;48.090;11.498;2023-02-18T01:10:35;2.95;;;2.00;;
8353;SDS011;4656;48.090;11.498;2023-02-18T01:12:37;3.03;;;2.28;;
8353;SDS011;4656;48.090;11.498;2023-02-18T01:14:39;3.38;;;2.20;;
8353;SDS011;4656;48.090;11.498;2023-02-18T01:16:42;4.00;;;2.10;;
8353;SDS011;4656;48.090;11.498;2023-02-18T01:18:45;3.10;;;2.15;;
8353;SDS011;4656;48.090;11.498;2023-02-18T01:20:48;3.70;;;2.30;;
8353;SDS011;4656;48.090;11.498;2023-02-18T01:22:50;2.42;;;2.22;;
8353;SDS011;4656;48.090;11.498;2023-02-18T01:24:53;3.47;;;2.33;;
8353;SDS011;4656;48.090;11.498;2023-02-18T01:26:55;3.33;;;2.63;;
8353;SDS011;4656;48.090;11.498;2023-02-18T01:28:57;4.35;;;2.63;;
8353;SDS011;4656;48.090;11.498;2023-02-18T01:31:02;3.53;;;2.28;;
8353;SDS011;4656;48.090;11.498;2023-02-18T01:33:05;3.63;;;2.50;;
8353;SDS011;4656;48.090;11.498;2023-02-18T01:35:11;2.50;;;2.30;;
8353;SDS011;4656;48.090;11.498;2023-02-18T01:37:14;3.38;;;2.40;;
8353;SDS011;4656;48.090;11.498;2023-02-18T01:39:16;3.08;;;2.60;;
8353;SDS011;4656;48.090;11.498;2023-02-18T01:41:19;2.85;;;2.30;;
8353;SDS011;4656;48.090;11.498;2023-02-18T01:43:21;3.45;;;2.30;;
8353;SDS011;4656;48.090;11.498;2023-02-18T01:45:35;3.15;;;2.65;;
8353;SDS011;4656;48.090;11.498;2023-02-18T01:47:40;2.58;;;2.35;;
8353;SDS011;4656;48.090;11.498;2023-02-18T01:49:43;3.67;;;2.22;;
8353;SDS011;4656;48.090;11.498;2023-02-18T01:51:47;3.42;;;2.33;;
8353;SDS011;4656;48.090;11.498;2023-02-18T01:53:52;2.88;;;2.50;;
8353;SDS011;4656;48.090;11.498;2023-02-18T01:55:55;3.10;;;2.45;;
8353;SDS011;4656;48.090;11.498;2023-02-18T01:57:58;3.38;;;2.28;;
8353;SDS011;4656;48.090;11.498;2023-02-18T02:00:03;4.80;;;2.40;;
8353;SDS011;4656;48.090;11.498;2023-02-18T02:02:05;2.72;;;2.20;;
8353;SDS011;4656;48.090;11.498;2023-02-18T02:04:09;2.42;;;2.10;;
8353;SDS011;4656;48.090;11.498;2023-02-18T02:06:13;3.05;;;2.28;;
8353;SDS011;4656;48.090;11.498;2023-02-18T02:08:17;3.38;;;2.10;;
8353;SDS011;4656;48.090;11.498;2023-02-18T02:10:19;3.58;;;2.22;;
8353;SDS011;4656;48.090;11.498;2023-02-18T02:12:30;2.95;;;2.30;;
8353;SDS011;4656;48.090;11.498;2023-02-18T02:14:44;4.05;;;2.00;;
8353;SDS011;4656;48.090;11.498;2023-02-18T02:16:50;3.08;;;2.13;;
8353;SDS011;4656;48.090;11.498;2023-02-18T02:18:57;2.45;;;1.90;;
8353;SDS011;4656;48.090;11.498;2023-02-18T02:21:19;2.35;;;2.00;;
8353;SDS011;4656;48.090;11.498;2023-02-18T02:23:42;2.33;;;1.90;;
8353;SDS011;4656;48.090;11.498;2023-02-18T02:25:53;3.55;;;2.10;;
8353;SDS011;4656;48.090;11.498;2023-02-18T02:28:05;2.08;;;1.88;;
8353;SDS011;4656;48.090;11.498;2023-02-18T02:30:21;1.90;;;1.80;;
8353;SDS011;4656;48.090;11.498;2023-02-18T02:32:38;1.80;;;1.70;;
8353;SDS011;4656;48.090;11.498;2023-02-18T02:34:46;3.43;;;1.80;;
8353;SDS011;4656;48.090;11.498;2023-02-18T02:36:49;2.10;;;1.90;;
8353;SDS011;4656;48.090;11.498;2023-02-18T02:38:54;3.97;;;2.10;;
8353;SDS011;4656;48.090;11.498;2023-02-18T02:40:59;2.05;;;1.80;;
8353;SDS011;4656;48.090;11.498;2023-02-18T02:43:05;3.08;;;2.10;;
8353;SDS011;4656;48.090;11.498;2023-02-18T02:45:11;2.92;;;2.13;;
8353;SDS011;4656;48.090;11.498;2023-02-18T02:47:18;2.47;;;1.75;;
8353;SDS011;4656;48.090;11.498;2023-02-18T02:49:27;2.90;;;1.58;;
8353;SDS011;4656;48.090;11.498;2023-02-18T02:51:34;1.70;;;1.50;;
8353;SDS011;4656;48.090;11.498;2023-02-18T02:53:40;1.67;;;1.58;;
8353;SDS011;4656;48.090;11.498;2023-02-18T02:55:42;1.63;;;1.53;;
8353;SDS011;4656;48.090;11.498;2023-02-18T02:57:46;2.85;;;1.60;;
8353;SDS011;4656;48.090;11.498;2023-02-18T02:59:49;1.70;;;1.60;;
8353;SDS011;4656;48.090;11.498;2023-02-18T03:01:56;1.90;;;1.45;;
8353;SDS011;4656;48.090;11.498;2023-02-18T03:04:12;1.67;;;1.50;;
8353;SDS011;4656;48.090;11.498;2023-02-18T03:06:24;1.77;;;1.50;;
8353;SDS011;4656;48.090;11.498;2023-02-18T03:08:33;1.52;;;1.42;;
8353;SDS011;4656;48.090;11.498;2023-02-18T03:10:42;2.03;;;1.70;;
8353;SDS011;4656;48.090;11.498;2023-02-18T03:12:48;3.40;;;1.60;;
8353;SDS011;4656;48.090;11.498;2023-02-18T03:14:55;1.50;;;1.40;;
8353;SDS011;4656;48.090;11.498;2023-02-18T03:17:01;1.48;;;1.38;;
8353;SDS011;4656;48.090;11.498;2023-02-18T03:19:05;2.13;;;1.50;;
8353;SDS011;4656;48.090;11.498;2023-02-18T03:21:10;1.77;;;1.63;;
8353;SDS011;4656;48.090;11.498;2023-02-18T03:23:14;1.67;;;1.58;;
8353;SDS011;4656;48.090;11.498;2023-02-18T03:25:19;1.73;;;1.48;;
8353;SDS011;4656;48.090;11.498;2023-02-18T03:27:23;1.97;;;1.63;;
8353;SDS011;4656;48.090;11.498;2023-02-18T03:29:26;2.05;;;1.50;;
8353;SDS011;4656;48.090;11.498;2023-02-18T03:31:29;1.90;;;1.63;;
8353;SDS011;4656;48.090;11.498;2023-02-18T03:33:33;2.08;;;1.58;;
8353;SDS011;4656;48.090;11.498;2023-02-18T03:35:37;1.85;;;1.75;;
8353;SDS011;4656;48.090;11.498;2023-02-18T03:37:41;2.80;;;1.50;;
8353;SDS011;4656;48.090;11.498;2023-02-18T03:39:44;1.33;;;1.23;;
8353;SDS011;4656;48.090;11.498;2023-02-18T03:41:49;1.60;;;1.50;;
8353;SDS011;4656;48.090;11.498;2023-02-18T03:43:51;1.60;;;1.50;;
8353;SDS011;4656;48.090;11.498;2023-02-18T03:45:54;2.63;;;1.70;;
8353;SDS011;4656;48.090;11.498;2023-02-18T03:47:56;2.00;;;1.70;;
8353;SDS011;4656;48.090;11.498;2023-02-18T03:49:59;1.77;;;1.60;;
8353;SDS011;4656;48.090;11.498;2023-02-18T03:52:01;1.80;;;1.70;;
8353;SDS011;4656;48.090;11.498;2023-02-18T03:54:03;2.22;;;1.98;;
8353;SDS011;4656;48.090;11.498;2023-02-18T03:56:05;2.97;;;1.80;;
8353;SDS011;4656;48.090;11.498;2023-02-18T03:58:09;1.70;;;1.60;;
8353;SDS011;4656;48.090;11.498;2023-02-18T04:00:11;2.17;;;1.98;;
8353;SDS011;4656;48.090;11.498;2023-02-18T04:02:14;1.70;;;1.60;;
8353;SDS011;4656;48.090;11.498;2023-02-18T04:04:16;2.15;;;1.60;;
8353;SDS011;4656;48.090;11.498;2023-02-18T04:06:18;1.90;;;1.80;;
8353;SDS011;4656;48.090;11.498;2023-02-18T04:08:20;1.83;;;1.73;;
8353;SDS011;4656;48.090;11.498;2023-02-18T04:10:22;2.25;;;2.00;;
8353;SDS011;4656;48.090;11.498;2023-02-18T04:12:24;2.38;;;1.70;;
8353;SDS011;4656;48.090;11.498;2023-02-18T04:14:28;1.80;;;1.70;;
8353;SDS011;4656;48.090;11.498;2023-02-18T04:16:30;2.53;;;1.80;;
8353;SDS011;4656;48.090;11.498;2023-02-18T04:18:32;2.00;;;1.83;;
8353;SDS011;4656;48.090;11.498;2023-02-18T04:20:34;2.70;;;1.80;;
8353;SDS011;4656;48.090;11.498;2023-02-18T04:22:37;2.17;;;1.77;;
8353;SDS011;4656;48.090;11.498;2023-02-18T04:24:39;2.42;;;1.67;;
8353;SDS011;4656;48.090;11.498;2023-02-18T04:26:41;2.35;;;1.60;;
8353;SDS011;4656;48.090;11.498;2023-02-18T04:28:43;2.53;;;1.50;;
8353;SDS011;4656;48.090;11.498;2023-02-18T04:30:47;2.83;;;1.80;;
8353;SDS011;4656;48.090;11.498;2023-02-18T04:32:49;1.90;;;1.70;;
8353;SDS011;4656;48.090;11.498;2023-02-18T04:34:51;1.88;;;1.63;;
8353;SDS011;4656;48.090;11.498;2023-02-18T04:36:54;2.00;;;1.80;;
8353;SDS011;4656;48.090;11.498;2023-02-18T04:38:56;1.65;;;1.40;;
8353;SDS011;4656;48.090;11.498;2023-02-18T04:40:58;2.00;;;1.50;;
8353;SDS011;4656;48.090;11.498;2023-02-18T04:43:01;2.20;;;1.52;;
8353;SDS011;4656;48.090;11.498;2023-02-18T04:45:03;1.60;;;1.50;;
8353;SDS011;4656;48.090;11.498;2023-02-18T04:47:07;2.38;;;1.80;;
8353;SDS011;4656;48.090;11.498;2023-02-18T04:49:09;1.60;;;1.50;;
8353;SDS011;4656;48.090;11.498;2023-02-18T04:51:11;2.28;;;1.67;;
8353;SDS011;4656;48.090;11.498;2023-02-18T04:53:13;1.52;;;1.42;;
8353;SDS011;4656;48.090;11.498;2023-02-18T04:55:16;2.05;;;1.60;;
8353;SDS011;4656;48.090;11.498;2023-02-18T04:57:18;1.50;;;1.40;;
8353;SDS011;4656;48.090;11.498;2023-02-18T04:59:20;2.35;;;1.85;;
8353;SDS011;4656;48.090;11.498;2023-02-18T05:01:22;2.10;;;1.57;;
8353;SDS011;4656;48.090;11.498;2023-02-18T05:03:26;1.60;;;1.50;;
8353;SDS011;4656;48.090;11.498;2023-02-18T05:05:28;1.58;;;1.48;;
8353;SDS011;4656;48.090;11.498;2023-02-18T05:07:30;2.20;;;1.48;;
8353;SDS011;4656;48.090;11.498;2023-02-18T05:09:32;1.60;;;1.23;;
8353;SDS011;4656;48.090;11.498;2023-02-18T05:11:34;1.10;;;1.10;;
8353;SDS011;4656;48.090;11.498;2023-02-18T05:13:37;1.30;;;1.20;;
8353;SDS011;4656;48.090;11.498;2023-02-18T05:15:39;1.35;;;1.20;;
8353;SDS011;4656;48.090;11.498;2023-02-18T05:17:41;1.40;;;1.30;;
8353;SDS011;4656;48.090;11.498;2023-02-18T05:19:45;1.42;;;1.33;;
8353;SDS011;4656;48.090;11.498;2023-02-18T05:21:47;1.27;;;1.17;;
8353;SDS011;4656;48.090;11.498;2023-02-18T05:23:49;1.05;;;1.02;;
8353;SDS011;4656;48.090;11.498;2023-02-18T05:25:51;1.13;;;1.02;;
8353;SDS011;4656;48.090;11.498;2023-02-18T05:27:53;1.17;;;1.08;;
8353;SDS011;4656;48.090;11.498;2023-02-18T05:29:55;0.95;;;0.95;;
8353;SDS011;4656;48.090;11.498;2023-02-18T05:31:58;1.20;;;1.10;;
8353;SDS011;4656;48.090;11.498;2023-02-18T05:34:00;1.02;;;0.93;;
8353;SDS011;4656;48.090;11.498;2023-02-18T05:36:04;2.40;;;0.90;;
8353;SDS011;4656;48.090;11.498;2023-02-18T05:38:06;1.30;;;0.80;;
8353;SDS011;4656;48.090;11.498;2023-02-18T05:40:09;0.90;;;0.90;;
8353;SDS011;4656;48.090;11.498;2023-02-18T05:42:11;0.93;;;0.82;;
8353;SDS011;4656;48.090;11.498;2023-02-18T05:44:13;1.10;;;1.00;;
8353;SDS011;4656;48.090;11.498;2023-02-18T05:46:31;0.82;;;0.82;;
8353;SDS011;4656;48.090;11.498;2023-02-18T05:48:33;0.90;;;0.90;;
8353;SDS011;4656;48.090;11.498;2023-02-18T05:50:35;1.30;;;1.10;;
8353;SDS011;4656;48.090;11.498;2023-02-18T05:52:39;1.20;;;1.10;;
8353;SDS011;4656;48.090;11.498;2023-02-18T05:54:41;1.10;;;1.00;;
8353;SDS011;4656;48.090;11.498;2023-02-18T05:56:44;1.00;;;0.85;;
8353;SDS011;4656;48.090;11.498;2023-02-18T05:58:46;1.00;;;0.98;;
8353;SDS011;4656;48.090;11.498;2023-02-18T06:00:48;0.90;;;0.90;;
8353;SDS011;4656;48.090;11.498;2023-02-18T06:02:50;1.10;;;1.00;;
8353;SDS011;4656;48.090;11.498;2023-02-18T06:04:52;1.02;;;1.02;;
8353;SDS011;4656;48.090;11.498;2023-02-18T06:06:55;1.20;;;1.10;;
8353;SDS011;4656;48.090;11.498;2023-02-18T06:08:58;1.00;;;1.00;;
8353;SDS011;4656;48.090;11.498;2023-02-18T06:11:01;1.00;;;1.00;;
8353;SDS011;4656;48.090;11.498;2023-02-18T06:13:03;1.52;;;1.15;;
8353;SDS011;4656;48.090;11.498;2023-02-18T06:15:05;1.05;;;1.05;;
8353;SDS011;4656;48.090;11.498;2023-02-18T06:17:08;1.30;;;1.17;;
8353;SDS011;4656;48.090;11.498;2023-02-18T06:19:10;1.00;;;1.00;;
8353;SDS011;4656;48.090;11.498;2023-02-18T06:21:12;0.90;;;0.90;;
8353;SDS011;4656;48.090;11.498;2023-02-18T06:23:14;1.00;;;1.00;;
8353;SDS011;4656;48.090;11.498;2023-02-18T06:25:18;0.88;;;0.88;;
8353;SDS011;4656;48.090;11.498;2023-02-18T06:27:20;0.90;;;0.90;;
8353;SDS011;4656;48.090;11.498;2023-02-18T06:29:22;1.00;;;1.00;;
8353;SDS011;4656;48.090;11.498;2023-02-18T06:31:25;1.10;;;1.00;;
8353;SDS011;4656;48.090;11.498;2023-02-18T06:33:28;1.10;;;0.88;;
8353;SDS011;4656;48.090;11.498;2023-02-18T06:35:30;0.90;;;0.90;;
8353;SDS011;4656;48.090;11.498;2023-02-18T06:37:32;1.10;;;1.00;;
8353;SDS011;4656;48.090;11.498;2023-02-18T06:39:35;0.70;;;0.70;;
8353;SDS011;4656;48.090;11.498;2023-02-18T06:41:38;1.33;;;1.10;;
8353;SDS011;4656;48.090;11.498;2023-02-18T06:43:40;0.90;;;0.90;;
8353;SDS011;4656;48.090;11.498;2023-02-18T06:45:43;1.00;;;0.93;;
8353;SDS011;4656;48.090;11.498;2023-02-18T06:47:45;0.75;;;0.75;;
8353;SDS011;4656;48.090;11.498;2023-02-18T06:49:47;1.27;;;0.90;;
8353;SDS011;4656;48.090;11.498;2023-02-18T06:51:50;0.87;;;0.87;;
8353;SDS011;4656;48.090;11.498;2023-02-18T06:53:52;0.80;;;0.80;;
8353;SDS011;4656;48.090;11.498;2023-02-18T06:55:54;1.80;;;0.90;;
8353;SDS011;4656;48.090;11.498;2023-02-18T06:57:57;0.80;;;0.80;;
8353;SDS011;4656;48.090;11.498;2023-02-18T06:59:59;1.00;;;0.90;;
8353;SDS011;4656;48.090;11.498;2023-02-18T07:02:03;0.60;;;0.60;;
8353;SDS011;4656;48.090;11.498;2023-02-18T07:04:05;0.82;;;0.82;;
8353;SDS011;4656;48.090;11.498;2023-02-18T07:06:07;0.88;;;0.88;;
8353;SDS011;4656;48.090;11.498;2023-02-18T07:08:10;0.68;;;0.68;;
8353;SDS011;4656;48.090;11.498;2023-02-18T07:10:12;0.80;;;0.80;;
8353;SDS011;4656;48.090;11.498;2023-02-18T07:12:14;0.80;;;0.80;;
8353;SDS011;4656;48.090;11.498;2023-02-18T07:14:17;0.80;;;0.70;;
8353;SDS011;4656;48.090;11.498;2023-02-18T07:16:20;0.80;;;0.80;;
8353;SDS011;4656;48.090;11.498;2023-02-18T07:18:22;1.00;;;0.85;;
8353;SDS011;4656;48.090;11.498;2023-02-18T07:20:25;0.70;;;0.70;;
8353;SDS011;4656;48.090;11.498;2023-02-18T07:22:29;1.80;;;1.00;;
8353;SDS011;4656;48.090;11.498;2023-02-18T07:24:31;0.80;;;0.80;;
8353;SDS011;4656;48.090;11.498;2023-02-18T07:26:33;0.98;;;0.80;;
8353;SDS011;4656;48.090;11.498;2023-02-18T07:28:35;1.02;;;0.90;;
8353;SDS011;4656;48.090;11.498;2023-02-18T07:30:39;0.90;;;0.80;;
8353;SDS011;4656;48.090;11.498;2023-02-18T07:32:41;0.77;;;0.77;;
8353;SDS011;4656;48.090;11.498;2023-02-18T07:34:44;0.73;;;0.73;;
8353;SDS011;4656;48.090;11.498;2023-02-18T07:36:46;0.80;;;0.80;;
8353;SDS011;4656;48.090;11.498;2023-02-18T07:38:48;0.80;;;0.70;;
8353;SDS011;4656;48.090;11.498;2023-02-18T07:40:50;0.83;;;0.77;;
8353;SDS011;4656;48.090;11.498;2023-02-18T07:42:52;0.60;;;0.60;;
8353;SDS011;4656;48.090;11.498;2023-02-18T07:44:54;1.00;;;0.90;;
8353;SDS011;4656;48.090;11.498;2023-02-18T07:46:58;0.68;;;0.68;;
8353;SDS011;4656;48.090;11.498;2023-02-18T07:49:00;0.80;;;0.80;;
8353;SDS011;4656;48.090;11.498;2023-02-18T07:51:04;0.82;;;0.82;;
8353;SDS011;4656;48.090;11.498;2023-02-18T07:53:06;0.75;;;0.75;;
8353;SDS011;4656;48.090;11.498;2023-02-18T07:55:08;0.90;;;0.90;;
8353;SDS011;4656;48.090;11.498;2023-02-18T07:57:11;0.68;;;0.68;;
8353;SDS011;4656;48.090;11.498;2023-02-18T07:59:13;0.70;;;0.70;;
8353;SDS011;4656;48.090;11.498;2023-02-18T08:01:15;0.80;;;0.80;;
8353;SDS011;4656;48.090;11.498;2023-02-18T08:03:19;0.60;;;0.60;;
8353;SDS011;4656;48.090;11.498;2023-02-18T08:05:22;1.02;;;0.75;;
8353;SDS011;4656;48.090;11.498;2023-02-18T08:07:24;0.60;;;0.60;;
8353;SDS011;4656;48.090;11.498;2023-02-18T08:09:27;0.82;;;0.82;;
8353;SDS011;4656;48.090;11.498;2023-02-18T08:11:29;0.80;;;0.80;;
8353;SDS011;4656;48.090;11.498;2023-02-18T08:13:31;0.70;;;0.70;;
8353;SDS011;4656;48.090;11.498;2023-02-18T08:15:36;3.30;;;0.80;;
8353;SDS011;4656;48.090;11.498;2023-02-18T08:17:38;0.73;;;0.73;;
8353;SDS011;4656;48.090;11.498;2023-02-18T08:19:41;0.70;;;0.70;;
8353;SDS011;4656;48.090;11.498;2023-02-18T08:21:43;0.70;;;0.70;;
8353;SDS011;4656;48.090;11.498;2023-02-18T08:23:46;1.67;;;0.60;;
8353;SDS011;4656;48.090;11.498;2023-02-18T08:25:49;0.70;;;0.70;;
8353;SDS011;4656;48.090;11.498;2023-02-18T08:27:51;1.02;;;0.93;;
8353;SDS011;4656;48.090;11.498;2023-02-18T08:29:53;0.77;;;0.60;;
8353;SDS011;4656;48.090;11.498;2023-02-18T08:31:55;0.93;;;0.75;;
8353;SDS011;4656;48.090;11.498;2023-02-18T08:33:58;0.73;;;0.73;;
8353;SDS011;4656;48.090;11.498;2023-02-18T08:36:02;0.93;;;0.90;;
8353;SDS011;4656;48.090;11.498;2023-02-18T08:38:09;0.98;;;0.98;;
8353;SDS011;4656;48.090;11.498;2023-02-18T08:40:11;0.90;;;0.90;;
8353;SDS011;4656;48.090;11.498;2023-02-18T08:42:14;1.60;;;0.90;;
8353;SDS011;4656;48.090;11.498;2023-02-18T08:44:16;1.15;;;0.80;;
8353;SDS011;4656;48.090;11.498;2023-02-18T08:46:18;0.82;;;0.77;;
8353;SDS011;4656;48.090;11.498;2023-02-18T08:48:20;0.80;;;0.80;;
8353;SDS011;4656;48.090;11.498;2023-02-18T08:50:22;0.80;;;0.80;;
8353;SDS011;4656;48.090;11.498;2023-02-18T08:52:27;0.88;;;0.85;;
8353;SDS011;4656;48.090;11.498;2023-02-18T08:54:29;1.02;;;0.90;;
8353;SDS011;4656;48.090;11.498;2023-02-18T08:56:31;0.70;;;0.70;;
8353;SDS011;4656;48.090;11.498;2023-02-18T08:58:33;1.33;;;0.73;;
8353;SDS011;4656;48.090;11.498;2023-02-18T09:00:36;1.15;;;0.80;;
8353;SDS011;4656;48.090;11.498;2023-02-18T09:02:39;1.13;;;0.70;;
8353;SDS011;4656;48.090;11.498;2023-02-18T09:04:41;1.52;;;1.00;;
8353;SDS011;4656;48.090;11.498;2023-02-18T09:06:43;2.42;;;1.08;;
8353;SDS011;4656;48.090;11.498;2023-02-18T09:08:47;1.00;;;0.90;;
8353;SDS011;4656;48.090;11.498;2023-02-18T09:10:49;1.00;;;1.00;;
8353;SDS011;4656;48.090;11.498;2023-02-18T09:12:55;0.80;;;0.80;;
8353;SDS011;4656;48.090;11.498;2023-02-18T09:14:57;1.53;;;1.20;;
8353;SDS011;4656;48.090;11.498;2023-02-18T09:16:59;0.70;;;0.70;;
8353;SDS011;4656;48.090;11.498;2023-02-18T09:19:01;1.40;;;0.97;;
8353;SDS011;4656;48.090;11.498;2023-02-18T09:21:04;2.33;;;0.95;;
8353;SDS011;4656;48.090;11.498;2023-02-18T09:23:06;2.00;;;1.08;;
8353;SDS011;4656;48.090;11.498;2023-02-18T09:25:11;1.40;;;0.80;;
8353;SDS011;4656;48.090;11.498;2023-02-18T09:27:13;1.48;;;0.90;;
8353;SDS011;4656;48.090;11.498;2023-02-18T09:29:15;1.17;;;0.80;;
8353;SDS011;4656;48.090;11.498;2023-02-18T09:31:19;1.77;;;1.00;;
8353;SDS011;4656;48.090;11.498;2023-02-18T09:33:21;1.08;;;0.68;;
8353;SDS011;4656;48.090;11.498;2023-02-18T09:35:24;1.30;;;0.80;;
8353;SDS011;4656;48.090;11.498;2023-02-18T09:37:26;1.23;;;0.73;;
8353;SDS011;4656;48.090;11.498;2023-02-18T09:39:28;1.20;;;0.90;;
8353;SDS011;4656;48.090;11.498;2023-02-18T09:41:33;1.00;;;0.80;;
8353;SDS011;4656;48.090;11.498;2023-02-18T09:43:39;0.98;;;0.88;;
8353;SDS011;4656;48.090;11.498;2023-02-18T09:45:42;1.50;;;0.82;;
8353;SDS011;4656;48.090;11.498;2023-02-18T09:47:45;1.25;;;1.00;;
8353;SDS011;4656;48.090;11.498;2023-02-18T09:49:47;2.08;;;1.00;;
8353;SDS011;4656;48.090;11.498;2023-02-18T09:51:52;1.15;;;0.70;;
8353;SDS011;4656;48.090;11.498;2023-02-18T09:53:54;2.30;;;1.20;;
8353;SDS011;4656;48.090;11.498;2023-02-18T09:55:56;2.28;;;0.80;;
8353;SDS011;4656;48.090;11.498;2023-02-18T09:58:01;1.35;;;0.90;;
8353;SDS011;4656;48.090;11.498;2023-02-18T10:00:05;1.80;;;1.00;;
8353;SDS011;4656;48.090;11.498;2023-02-18T10:02:08;0.90;;;0.90;;
8353;SDS011;4656;48.090;11.498;2023-02-18T10:04:12;1.52;;;0.80;;
8353;SDS011;4656;48.090;11.498;2023-02-18T10:06:18;1.08;;;0.82;;
8353;SDS011;4656;48.090;11.498;2023-02-18T10:08:23;1.20;;;0.85;;
8353;SDS011;4656;48.090;11.498;2023-02-18T10:10:38;0.95;;;0.82;;
8353;SDS011;4656;48.090;11.498;2023-02-18T10:12:41;0.80;;;0.80;;
8353;SDS011;4656;48.090;11.498;2023-02-18T10:14:46;0.85;;;0.85;;
8353;SDS011;4656;48.090;11.498;2023-02-18T10:16:49;1.60;;;0.80;;
8353;SDS011;4656;48.090;11.498;2023-02-18T10:18:52;1.13;;;0.90;;
8353;SDS011;4656;48.090;11.498;2023-02-18T10:20:57;0.93;;;0.82;;
8353;SDS011;4656;48.090;11.498;2023-02-18T10:23:00;0.77;;;0.77;;
8353;SDS011;4656;48.090;11.498;2023-02-18T10:25:05;1.13;;;0.85;;
8353;SDS011;4656;48.090;11.498;2023-02-18T10:27:08;1.30;;;0.80;;
8353;SDS011;4656;48.090;11.498;2023-02-18T10:29:12;1.85;;;0.60;;
8353;SDS011;4656;48.090;11.498;2023-02-18T10:31:17;1.13;;;0.90;;
8353;SDS011;4656;48.090;11.498;2023-02-18T10:33:26;1.07;;;0.73;;
8353;SDS011;4656;48.090;11.498;2023-02-18T10:35:29;0.80;;;0.80;;
8353;SDS011;4656;48.090;11.498;2023-02-18T10:37:40;0.85;;;0.80;;
8353;SDS011;4656;48.090;11.498;2023-02-18T10:39:48;1.73;;;0.80;;
8353;SDS011;4656;48.090;11.498;2023-02-18T10:41:54;0.75;;;0.70;;
8353;SDS011;4656;48.090;11.498;2023-02-18T10:43:59;0.77;;;0.77;;
8353;SDS011;4656;48.090;11.498;2023-02-18T10:46:06;1.15;;;0.88;;
8353;SDS011;4656;48.090;11.498;2023-02-18T10:48:18;1.65;;;0.70;;
8353;SDS011;4656;48.090;11.498;2023-02-18T10:50:24;1.13;;;0.85;;
8353;SDS011;4656;48.090;11.498;2023-02-18T10:52:28;1.17;;;1.08;;
8353;SDS011;4656;48.090;11.498;2023-02-18T10:54:46;1.50;;;0.90;;
8353;SDS011;4656;48.090;11.498;2023-02-18T10:56:49;0.82;;;0.70;;
8353;SDS011;4656;48.090;11.498;2023-02-18T10:58:51;0.80;;;0.70;;
8353;SDS011;4656;48.090;11.498;2023-02-18T11:01:02;1.13;;;0.88;;
8353;SDS011;4656;48.090;11.498;2023-02-18T11:03:12;1.40;;;0.85;;
8353;SDS011;4656;48.090;11.498;2023-02-18T11:05:17;1.00;;;0.80;;
8353;SDS011;4656;48.090;11.498;2023-02-18T11:07:21;2.53;;;1.00;;
8353;SDS011;4656;48.090;11.498;2023-02-18T11:09:28;1.58;;;0.73;;
8353;SDS011;4656;48.090;11.498;2023-02-18T11:11:31;1.00;;;0.90;;
8353;SDS011;4656;48.090;11.498;2023-02-18T11:13:35;1.00;;;0.90;;
8353;SDS011;4656;48.090;11.498;2023-02-18T11:15:37;1.38;;;0.73;;
8353;SDS011;4656;48.090;11.498;2023-02-18T11:17:39;1.20;;;1.08;;
8353;SDS011;4656;48.090;11.498;2023-02-18T11:19:41;1.17;;;0.80;;
8353;SDS011;4656;48.090;11.498;2023-02-18T11:21:45;1.00;;;0.90;;
8353;SDS011;4656;48.090;11.498;2023-02-18T11:23:50;0.90;;;0.90;;
8353;SDS011;4656;48.090;11.498;2023-02-18T11:25:54;0.80;;;0.80;;
8353;SDS011;4656;48.090;11.498;2023-02-18T11:27:57;2.05;;;1.05;;
8353;SDS011;4656;48.090;11.498;2023-02-18T11:30:02;1.88;;;1.02;;
8353;SDS011;4656;48.090;11.498;2023-02-18T11:32:04;1.50;;;1.00;;
8353;SDS011;4656;48.090;11.498;2023-02-18T11:34:14;0.88;;;0.85;;
8353;SDS011;4656;48.090;11.498;2023-02-18T11:36:17;0.82;;;0.82;;
8353;SDS011;4656;48.090;11.498;2023-02-18T11:38:23;2.88;;;1.10;;
8353;SDS011;4656;48.090;11.498;2023-02-18T11:40:27;1.45;;;0.90;;
8353;SDS011;4656;48.090;11.498;2023-02-18T11:42:30;0.80;;;0.80;;
8353;SDS011;4656;48.090;11.498;2023-02-18T11:44:33;0.80;;;0.80;;
8353;SDS011;4656;48.090;11.498;2023-02-18T11:46:36;1.67;;;0.90;;
8353;SDS011;4656;48.090;11.498;2023-02-18T11:48:38;1.45;;;0.82;;
8353;SDS011;4656;48.090;11.498;2023-02-18T11:50:40;0.80;;;0.80;;
8353;SDS011;4656;48.090;11.498;2023-02-18T11:52:42;3.60;;;0.80;;
8353;SDS011;4656;48.090;11.498;2023-02-18T11:54:59;1.15;;;0.77;;
8353;SDS011;4656;48.090;11.498;2023-02-18T11:57:02;1.75;;;0.90;;
8353;SDS011;4656;48.090;11.498;2023-02-18T11:59:05;0.70;;;0.70;;
8353;SDS011;4656;48.090;11.498;2023-02-18T12:01:10;0.93;;;0.80;;
8353;SDS011;4656;48.090;11.498;2023-02-18T12:03:14;1.30;;;0.70;;
8353;SDS011;4656;48.090;11.498;2023-02-18T12:05:20;1.67;;;0.75;;
8353;SDS011;4656;48.090;11.498;2023-02-18T12:07:23;2.50;;;0.90;;
8353;SDS011;4656;48.090;11.498;2023-02-18T12:09:27;0.60;;;0.60;;
8353;SDS011;4656;48.090;11.498;2023-02-18T12:11:32;1.20;;;0.80;;
8353;SDS011;4656;48.090;11.498;2023-02-18T12:13:37;1.50;;;0.77;;
8353;SDS011;4656;48.090;11.498;2023-02-18T12:15:45;2.50;;;0.80;;
8353;SDS011;4656;48.090;11.498;2023-02-18T12:17:51;2.22;;;0.85;;
8353;SDS011;4656;48.090;11.498;2023-02-18T12:20:06;0.73;;;0.73;;
8353;SDS011;4656;48.090;11.498;2023-02-18T12:22:17;0.77;;;0.77;;
8353;SDS011;4656;48.090;11.498;2023-02-18T12:24:24;1.10;;;0.77;;
8353;SDS011;4656;48.090;11.498;2023-02-18T12:26:33;1.27;;;0.90;;
8353;SDS011;4656;48.090;11.498;2023-02-18T12:28:41;1.70;;;0.73;;
8353;SDS011;4656;48.090;11.498;2023-02-18T12:33:07;0.80;;;0.80;;
8353;SDS011;4656;48.090;11.498;2023-02-18T12:35:18;0.68;;;0.68;;
8353;SDS011;4656;48.090;11.498;2023-02-18T12:37:29;1.38;;;0.82;;
8353;SDS011;4656;48.090;11.498;2023-02-18T12:39:39;0.73;;;0.73;;